Time;durP1;ratioP1;P1;durP2;ratioP2;P2;SDS_P1;SDS_P2;PMS_P1;PMS_P2;Temp;Humidity;BMP_temperature;BMP_pressure;BME280_temperature;BME280_humidity;BME280_pressure;Samples;Min_cycle;Max_cycle;Signal;HPM_P1;HPM_P2
2021/06/29 00:01:10;;;;;;;;;3.00;3.00;;;;;24.41;50.54;100575.06;5020924;28;45928;-75
2021/06/29 00:03:36;;;;;;;;;2.75;2.00;;;;;24.43;49.95;100578.53;5003049;28;45520;-75
2021/06/29 00:06:01;;;;;;;;;4.00;3.00;;;;;24.41;50.25;100569.72;4985234;28;48315;-75
2021/06/29 00:08:27;;;;;;;;;2.75;2.75;;;;;24.39;50.62;100568.94;5003131;28;45440;-75
2021/06/29 00:10:52;;;;;;;;;3.00;3.00;;;;;24.40;49.77;100566.19;4985280;28;45263;-75
2021/06/29 00:13:20;;;;;;;;;3.00;2.00;;;;;24.43;50.40;100573.19;5002684;28;45454;-75
2021/06/29 00:15:45;;;;;;;;;4.00;3.00;;;;;24.43;50.40;100562.53;5002670;28;45317;-75
2021/06/29 00:18:11;;;;;;;;;4.00;3.00;;;;;24.34;50.18;100555.00;5002602;28;45249;-75
2021/06/29 00:20:36;;;;;;;;;2.50;2.50;;;;;24.33;50.05;100561.28;5002405;28;49999;-75
2021/06/29 00:23:02;;;;;;;;;4.00;2.00;;;;;24.30;49.90;100550.72;5017868;28;45216;-75
2021/06/29 00:25:28;;;;;;;;;3.50;3.00;;;;;24.29;50.69;100563.19;5002578;28;46774;-75
2021/06/29 00:27:53;;;;;;;;;4.00;3.25;;;;;24.25;50.56;100564.28;5001856;28;52307;-75
2021/06/29 00:30:19;;;;;;;;;4.50;3.75;;;;;24.18;50.71;100565.53;5002557;28;45281;-75
2021/06/29 00:32:44;;;;;;;;;1.00;1.00;;;;;24.14;50.02;100550.63;5001120;28;45546;-75
2021/06/29 00:35:10;;;;;;;;;3.25;3.25;;;;;24.08;50.29;100557.13;5001279;28;45475;-75
2021/06/29 00:37:36;;;;;;;;;4.75;4.00;;;;;23.93;50.44;100539.22;5001151;28;45285;-75
2021/06/29 00:40:03;;;;;;;;;3.00;2.00;;;;;23.91;50.67;100544.63;4984871;28;45266;-75
2021/06/29 00:42:28;;;;;;;;;2.00;2.00;;;;;23.94;50.65;100555.13;5007071;28;45258;-75
2021/06/29 00:44:53;;;;;;;;;2.00;2.00;;;;;23.88;50.56;100550.09;5003576;28;61850;-75
2021/06/29 00:47:19;;;;;;;;;3.75;1.75;;;;;23.84;51.01;100545.00;5020569;28;52794;-75
2021/06/29 00:49:45;;;;;;;;;3.50;3.50;;;;;23.85;51.29;100550.25;5021117;28;45609;-75
2021/06/29 00:52:12;;;;;;;;;3.25;3.25;;;;;23.86;50.84;100546.66;5003930;28;49614;-75
2021/06/29 00:54:37;;;;;;;;;2.75;2.00;;;;;23.83;51.15;100552.16;5022065;28;45401;-75
2021/06/29 00:57:03;;;;;;;;;4.00;2.75;;;;;23.80;50.99;100548.75;5020614;28;45383;-75
2021/06/29 00:59:28;;;;;;;;;2.00;2.00;;;;;23.74;51.28;100541.94;5020464;28;45386;-75
2021/06/29 01:01:54;;;;;;;;;3.00;3.00;;;;;23.68;51.13;100540.41;5020479;28;45310;-75
2021/06/29 01:04:19;;;;;;;;;3.75;3.00;;;;;23.66;51.36;100534.31;5020570;28;48366;-75
2021/06/29 01:06:45;;;;;;;;;2.50;2.50;;;;;23.65;51.48;100537.03;5001301;28;46085;-75
2021/06/29 01:09:10;;;;;;;;;5.00;5.00;;;;;23.62;51.36;100526.50;4984504;28;45328;-75
2021/06/29 01:11:38;;;;;;;;;4.00;3.00;;;;;23.57;51.48;100524.06;5016962;28;45439;-75
2021/06/29 01:14:13;;;;;;;;;3.00;3.00;;;;;23.60;51.98;100529.25;4983829;28;47415;-75
2021/06/29 01:16:39;;;;;;;;;2.75;2.75;;;;;23.52;52.15;100514.53;5000603;28;45225;-75
2021/06/29 01:19:05;;;;;;;;;3.00;3.00;;;;;23.57;52.19;100526.72;4984083;28;45263;-75
2021/06/29 01:21:35;;;;;;;;;4.00;2.50;;;;;23.50;52.10;100516.44;5000586;28;45664;-75
2021/06/29 01:24:01;;;;;;;;;4.50;4.00;;;;;23.54;52.08;100523.31;5016408;28;46551;-75
2021/06/29 01:26:30;;;;;;;;;2.25;2.25;;;;;23.53;52.87;100522.47;5001764;28;45381;-75
2021/06/29 01:29:02;;;;;;;;;3.00;3.00;;;;;23.55;51.86;100511.75;5000356;28;45411;-74
2021/06/29 01:31:28;;;;;;;;;3.00;3.00;;;;;23.58;53.18;100525.78;4994023;28;45263;-74
2021/06/29 01:33:53;;;;;;;;;3.00;3.00;;;;;23.68;53.00;100529.75;5021000;28;58482;-75
2021/06/29 01:36:20;;;;;;;;;3.00;3.00;;;;;23.75;52.72;100518.81;5021457;28;45187;-75
2021/06/29 01:38:46;;;;;;;;;3.00;3.00;;;;;23.77;52.07;100524.91;5020360;28;45266;-75
2021/06/29 01:41:13;;;;;;;;;2.00;2.00;;;;;23.76;51.83;100517.88;5020074;28;45814;-75
2021/06/29 01:46:20;;;;;;;;;4.00;4.00;;;;;23.77;52.04;100503.59;5014818;28;45265;-75
2021/06/29 01:48:46;;;;;;;;;4.00;4.00;;;;;23.71;51.23;100496.75;5000186;28;45287;-74
2021/06/29 01:51:12;;;;;;;;;2.25;2.00;;;;;23.70;51.50;100500.38;5007623;28;45519;-75
2021/06/29 01:53:37;;;;;;;;;3.00;3.00;;;;;23.63;52.37;100502.50;5003865;28;45345;-75
2021/06/29 01:56:03;;;;;;;;;5.00;2.00;;;;;23.60;51.32;100502.63;4999274;28;45309;-75
2021/06/29 01:58:30;;;;;;;;;2.25;2.25;;;;;23.57;51.78;100500.09;5000021;28;45460;-74
2021/06/29 02:00:56;;;;;;;;;3.00;3.00;;;;;23.55;51.58;100503.75;5019289;28;45491;-75
2021/06/29 02:03:21;;;;;;;;;4.00;3.00;;;;;23.51;52.27;100496.84;4999494;28;51191;-75
2021/06/29 02:05:47;;;;;;;;;2.25;2.25;;;;;23.53;52.33;100503.81;5016395;28;45372;-75
2021/06/29 02:08:12;;;;;;;;;3.50;2.50;;;;;23.52;51.65;100496.75;5001219;28;45247;-75
2021/06/29 02:10:38;;;;;;;;;2.00;2.00;;;;;23.50;51.77;100498.63;5010525;28;45436;-75
2021/06/29 02:13:03;;;;;;;;;6.50;4.00;;;;;23.46;52.09;100499.75;5020488;28;45431;-75
2021/06/29 02:15:29;;;;;;;;;3.00;3.00;;;;;23.40;52.42;100494.69;5025467;28;45258;-75
2021/06/29 02:17:54;;;;;;;;;3.00;3.00;;;;;23.38;52.72;100499.25;4999651;28;45305;-75
2021/06/29 02:20:20;;;;;;;;;4.00;4.00;;;;;23.36;51.89;100493.97;5001096;28;45158;-75
2021/06/29 02:22:46;;;;;;;;;4.00;3.25;;;;;23.34;52.57;100489.66;5000256;28;57625;-75
2021/06/29 02:25:12;;;;;;;;;3.25;3.00;;;;;23.37;52.78;100492.19;5000875;28;45234;-75
2021/06/29 02:27:38;;;;;;;;;4.75;4.75;;;;;23.35;52.44;100491.38;5015636;28;45702;-75
2021/06/29 02:30:04;;;;;;;;;3.00;3.00;;;;;23.34;52.08;100489.66;5015916;28;45313;-75
2021/06/29 02:32:29;;;;;;;;;3.00;3.00;;;;;23.36;53.22;100493.09;4999403;28;45443;-75
2021/06/29 02:34:55;;;;;;;;;3.00;3.00;;;;;23.37;52.71;100497.53;5000645;28;45308;-75
2021/06/29 02:37:20;;;;;;;;;4.00;3.00;;;;;23.37;53.35;100493.06;4999432;28;45778;-75
2021/06/29 02:39:46;;;;;;;;;2.00;2.00;;;;;23.36;52.66;100496.63;4999353;28;45564;-75
2021/06/29 02:42:12;;;;;;;;;2.50;2.50;;;;;23.41;52.60;100496.41;4999351;28;46904;-75
2021/06/29 02:44:37;;;;;;;;;3.75;3.00;;;;;23.41;52.87;100496.41;5002445;28;45242;-75
2021/06/29 02:47:03;;;;;;;;;3.25;3.25;;;;;23.45;52.67;100498.00;5020405;28;45351;-75
2021/06/29 02:49:29;;;;;;;;;3.00;3.00;;;;;23.45;52.56;100492.66;5019111;28;45234;-75
2021/06/29 02:51:54;;;;;;;;;3.50;3.50;;;;;23.42;52.17;100488.34;5016292;28;45423;-75
2021/06/29 02:54:19;;;;;;;;;4.00;3.00;;;;;23.38;52.32;100484.13;4992688;28;55174;-75
2021/06/29 02:56:45;;;;;;;;;3.75;3.00;;;;;23.36;52.88;100483.31;5018866;28;45236;-75
2021/06/29 02:59:12;;;;;;;;;2.50;2.50;;;;;23.28;52.28;100472.19;5018721;28;45412;-75
2021/06/29 03:01:37;;;;;;;;;3.00;3.00;;;;;23.30;52.83;100488.94;4999389;28;48362;-75
2021/06/29 03:04:03;;;;;;;;;3.00;3.00;;;;;23.20;52.02;100457.50;5002429;28;45958;-75
2021/06/29 03:06:28;;;;;;;;;6.25;4.00;;;;;23.27;52.97;100473.09;5014774;28;45327;-75
2021/06/29 03:08:54;;;;;;;;;5.50;3.00;;;;;23.25;52.59;100468.78;4998064;28;45306;-75
2021/06/29 03:11:19;;;;;;;;;5.25;4.00;;;;;23.26;52.74;100465.19;5015912;28;47787;-75
2021/06/29 03:13:45;;;;;;;;;3.25;3.00;;;;;23.16;52.50;100451.44;5019129;28;61555;-75
2021/06/29 03:16:11;;;;;;;;;4.25;4.25;;;;;23.21;52.45;100459.25;5018753;28;45313;-75
2021/06/29 03:18:37;;;;;;;;;4.00;4.00;;;;;23.19;53.03;100456.63;5018770;28;45400;-75
2021/06/29 03:21:02;;;;;;;;;5.75;4.25;;;;;23.15;52.26;100451.53;4998653;28;48168;-75
2021/06/29 03:23:28;;;;;;;;;5.00;3.75;;;;;23.15;52.95;100462.19;5015329;28;45285;-75
2021/06/29 03:25:53;;;;;;;;;3.75;2.75;;;;;23.07;53.22;100444.75;5015068;28;45187;-75
2021/06/29 03:28:19;;;;;;;;;3.25;3.25;;;;;23.12;52.59;100453.41;5008950;28;45501;-75
2021/06/29 03:30:44;;;;;;;;;3.25;2.00;;;;;23.21;52.81;100449.44;5019491;28;45213;-75
2021/06/29 03:33:09;;;;;;;;;3.50;3.50;;;;;23.22;52.95;100450.31;5009483;28;45213;-75
2021/06/29 03:35:35;;;;;;;;;2.25;2.00;;;;;23.25;52.59;100447.50;4999229;28;61536;-75
2021/06/29 03:38:01;;;;;;;;;3.50;3.50;;;;;23.31;51.66;100442.75;4999986;28;45243;-75
2021/06/29 03:40:26;;;;;;;;;2.00;2.00;;;;;23.35;53.45;100451.44;5015614;28;48014;-75
2021/06/29 03:42:52;;;;;;;;;4.00;3.50;;;;;23.36;51.63;100451.34;5018135;28;45247;-75
2021/06/29 03:45:17;;;;;;;;;4.75;4.75;;;;;23.38;52.10;100444.19;5001179;28;58771;-75
2021/06/29 03:47:42;;;;;;;;;3.75;3.75;;;;;23.39;52.41;100453.88;5019011;28;53723;-75
2021/06/29 03:50:08;;;;;;;;;5.50;3.00;;;;;23.33;51.86;100442.66;5019235;28;51939;-75
2021/06/29 03:52:34;;;;;;;;;6.00;4.00;;;;;23.23;52.35;100444.03;5010110;28;45296;-75
2021/06/29 03:54:59;;;;;;;;;3.00;2.50;;;;;23.27;52.35;100450.94;5015084;28;45471;-75
2021/06/29 03:57:25;;;;;;;;;2.00;2.00;;;;;23.25;52.40;100453.66;4998313;28;45956;-75
2021/06/29 03:59:50;;;;;;;;;4.25;3.00;;;;;23.21;52.38;100452.09;5002725;28;45400;-75
2021/06/29 04:02:16;;;;;;;;;2.25;2.25;;;;;23.17;52.99;100453.16;4999631;28;45393;-75
2021/06/29 04:04:42;;;;;;;;;2.00;2.00;;;;;23.22;51.70;100448.50;4998431;28;45397;-75
2021/06/29 04:07:09;;;;;;;;;3.00;3.00;;;;;23.26;53.24;100452.72;4998384;28;45252;-75
2021/06/29 04:09:37;;;;;;;;;2.50;2.50;;;;;23.30;52.13;100454.34;4982047;28;48281;-75
2021/06/29 04:12:03;;;;;;;;;4.00;3.00;;;;;23.32;52.29;100456.91;4982195;28;45464;-75
2021/06/29 04:14:28;;;;;;;;;3.00;3.00;;;;;23.29;51.75;100447.28;4999180;28;45490;-75
2021/06/29 04:16:54;;;;;;;;;1.75;1.00;;;;;23.26;51.90;100462.53;4997751;28;56424;-75
2021/06/29 04:19:19;;;;;;;;;2.50;2.50;;;;;23.19;51.70;100461.94;4999390;28;46534;-76
2021/06/29 04:21:45;;;;;;;;;2.00;2.00;;;;;23.18;52.84;100451.38;4985035;28;45327;-76
2021/06/29 04:24:10;;;;;;;;;2.00;2.00;;;;;23.18;51.77;100451.38;5001497;28;45405;-76
2021/06/29 04:26:35;;;;;;;;;2.00;2.00;;;;;23.17;51.68;100444.31;4985065;28;45425;-76
2021/06/29 04:29:01;;;;;;;;;3.00;3.00;;;;;23.11;51.58;100446.38;4984134;28;48337;-76
2021/06/29 04:31:27;;;;;;;;;2.00;2.00;;;;;23.16;51.65;100446.13;5001344;28;45415;-76
2021/06/29 04:33:53;;;;;;;;;3.50;3.00;;;;;23.13;52.46;100451.59;4985275;28;45387;-75
2021/06/29 04:36:19;;;;;;;;;3.25;3.25;;;;;23.11;52.16;100456.16;5001263;28;45512;-76
2021/06/29 04:38:44;;;;;;;;;2.25;2.25;;;;;23.09;51.74;100455.34;5000742;28;53279;-75
2021/06/29 04:41:10;;;;;;;;;5.00;3.25;;;;;23.09;51.83;100447.34;5002469;28;45290;-76
2021/06/29 04:43:38;;;;;;;;;4.25;3.25;;;;;23.09;51.82;100436.69;5013786;28;52339;-76
2021/06/29 04:46:03;;;;;;;;;4.00;3.00;;;;;23.07;51.45;100438.56;5009956;28;45452;-75
2021/06/29 04:48:29;;;;;;;;;3.75;3.75;;;;;23.09;51.63;100444.69;5018221;28;62811;-74
2021/06/29 04:50:54;;;;;;;;;3.00;3.00;;;;;23.07;51.48;100442.09;5004382;28;53119;-73
2021/06/29 04:53:20;;;;;;;;;3.00;3.00;;;;;23.05;52.04;100429.81;5005701;28;45461;-73
2021/06/29 04:55:45;;;;;;;;;2.25;2.25;;;;;23.15;51.88;100440.88;5025952;28;45547;-74
2021/06/29 04:58:11;;;;;;;;;2.00;2.00;;;;;23.19;51.54;100442.44;5019746;28;47048;-73
2021/06/29 05:00:39;;;;;;;;;4.50;3.00;;;;;23.19;52.19;100437.97;5003351;28;60550;-74
2021/06/29 05:03:05;;;;;;;;;2.75;2.75;;;;;23.29;51.09;100438.44;5002163;28;45467;-74
2021/06/29 05:05:30;;;;;;;;;2.00;2.00;;;;;23.30;50.23;100427.69;5002386;28;45394;-76
2021/06/29 05:07:58;;;;;;;;;2.50;2.50;;;;;23.34;49.27;100439.91;4984031;28;48195;-77
2021/06/29 05:10:27;;;;;;;;;4.50;3.00;;;;;23.27;49.02;100448.28;5002079;28;45431;-76
2021/06/29 05:12:56;;;;;;;;;4.00;2.25;;;;;23.19;49.96;100447.78;5000860;28;45365;-77
2021/06/29 05:15:24;;;;;;;;;2.00;2.00;;;;;23.28;50.52;100456.22;4983987;28;45508;-76
2021/06/29 05:17:50;;;;;;;;;3.00;3.00;;;;;23.35;49.83;100460.28;5000433;28;47383;-76
2021/06/29 05:20:24;;;;;;;;;2.50;2.50;;;;;23.30;49.66;100458.78;5001827;28;45340;-76
2021/06/29 05:22:49;;;;;;;;;2.75;2.75;;;;;23.32;49.24;100470.22;5000415;28;45408;-75
2021/06/29 05:25:14;;;;;;;;;3.00;1.75;;;;;23.27;49.59;100472.22;5000302;28;45606;-76
2021/06/29 05:27:40;;;;;;;;;2.00;2.00;;;;;23.24;49.65;100467.06;5000106;28;46785;-75
2021/06/29 05:30:07;;;;;;;;;2.50;2.50;;;;;23.33;49.17;100469.28;5019102;28;45734;-75
2021/06/29 05:32:35;;;;;;;;;1.50;1.50;;;;;23.38;49.23;100475.28;5003508;28;45443;-76
2021/06/29 05:35:01;;;;;;;;;2.25;2.25;;;;;23.36;49.20;100479.78;5010085;28;45274;-78
2021/06/29 05:37:26;;;;;;;;;2.25;2.25;;;;;23.34;49.60;100485.19;5000282;28;46124;-77
2021/06/29 05:39:52;;;;;;;;;4.75;3.00;;;;;23.35;49.32;100484.25;4983992;28;45542;-77
2021/06/29 05:42:18;;;;;;;;;3.25;3.25;;;;;23.28;48.82;100481.94;5004866;28;45468;-78
2021/06/29 05:44:52;;;;;;;;;3.00;3.00;;;;;23.21;48.65;100488.53;5009978;28;45464;-77
2021/06/29 05:47:21;;;;;;;;;3.25;3.25;;;;;23.15;49.66;100488.81;5001111;28;47054;-79
2021/06/29 05:49:47;;;;;;;;;3.00;3.00;;;;;23.19;50.56;100498.34;5016867;28;45601;-78
2021/06/29 05:52:12;;;;;;;;;2.25;1.75;;;;;23.24;50.80;100493.69;5016444;28;45563;-74
2021/06/29 05:54:42;;;;;;;;;5.50;4.00;;;;;23.32;50.34;100492.41;5029443;28;45206;-71
2021/06/29 05:57:08;;;;;;;;;4.50;3.75;;;;;23.40;50.34;100492.03;5019840;28;45490;-72
2021/06/29 05:59:34;;;;;;;;;4.00;4.00;;;;;23.54;50.07;100497.53;5019437;28;45578;-73
2021/06/29 06:01:59;;;;;;;;;3.00;3.00;;;;;23.62;49.31;100494.53;4999550;28;50603;-73
2021/06/29 06:04:25;;;;;;;;;3.00;3.00;;;;;23.69;48.50;100504.84;4999941;28;45491;-73
2021/06/29 06:06:50;;;;;;;;;4.25;3.00;;;;;23.63;47.67;100502.50;4999712;28;45610;-73
2021/06/29 06:09:16;;;;;;;;;2.00;2.00;;;;;23.43;47.87;100513.19;5000694;28;49982;-75
2021/06/29 06:11:41;;;;;;;;;3.00;3.00;;;;;23.35;49.54;100504.69;5001112;28;45860;-74
2021/06/29 06:14:07;;;;;;;;;3.50;3.50;;;;;23.40;49.16;100508.00;4998940;28;56942;-74
2021/06/29 06:17:21;;;;;;;;;4.00;4.00;;;;;23.40;49.60;100505.34;5000759;28;45402;-73
2021/06/29 06:19:50;;;;;;;;;3.00;3.00;;;;;23.48;49.46;100510.31;4998222;28;45813;-76
2021/06/29 06:22:15;;;;;;;;;4.00;4.00;;;;;23.47;49.04;100509.47;5001559;28;45186;-77
2021/06/29 06:24:41;;;;;;;;;2.75;2.25;;;;;23.50;49.18;100516.44;5018487;28;55164;-77
2021/06/29 06:27:08;;;;;;;;;3.50;2.00;;;;;23.49;49.33;100504.06;4999114;28;47165;-74
2021/06/29 06:29:33;;;;;;;;;3.00;3.00;;;;;23.50;49.90;100513.75;4999082;28;45414;-73
2021/06/29 06:31:59;;;;;;;;;3.25;3.25;;;;;23.48;49.29;100513.84;4999562;28;47698;-72
2021/06/29 06:34:24;;;;;;;;;3.50;3.00;;;;;23.43;49.26;100513.19;4999318;28;45365;-72
2021/06/29 06:36:50;;;;;;;;;3.00;3.00;;;;;23.35;49.12;100516.22;5016222;28;45591;-71
2021/06/29 06:39:15;;;;;;;;;3.00;3.00;;;;;23.30;49.23;100514.72;4999563;28;45750;-72
2021/06/29 06:41:40;;;;;;;;;3.00;3.00;;;;;23.25;49.39;100514.06;5015428;28;45344;-71
2021/06/29 06:44:06;;;;;;;;;4.75;4.00;;;;;23.18;50.09;100504.63;5011918;28;53557;-71
2021/06/29 06:46:31;;;;;;;;;2.50;2.50;;;;;23.15;49.82;100508.31;5000588;28;46376;-70
2021/06/29 06:48:57;;;;;;;;;2.50;2.50;;;;;23.13;50.14;100512.84;5006068;28;45360;-71
2021/06/29 06:51:22;;;;;;;;;3.25;3.00;;;;;23.11;50.16;100504.94;5018999;28;45294;-72
2021/06/29 06:53:50;;;;;;;;;3.00;3.00;;;;;23.11;50.00;100498.75;5001344;28;45239;-70
2021/06/29 06:56:15;;;;;;;;;4.00;4.00;;;;;23.10;50.29;100505.84;4999236;28;46498;-72
2021/06/29 06:58:44;;;;;;;;;3.75;3.25;;;;;23.07;50.62;100506.00;4998579;28;45277;-73
2021/06/29 07:01:10;;;;;;;;;5.00;3.50;;;;;23.05;50.75;100502.53;5003831;28;45486;-72
2021/06/29 07:03:45;;;;;;;;;5.50;4.75;;;;;23.08;50.68;100518.34;5015320;28;45462;-73
2021/06/29 07:06:12;;;;;;;;;4.75;4.75;;;;;23.06;50.52;100506.94;4998843;28;47104;-73
2021/06/29 07:08:37;;;;;;;;;3.00;3.00;;;;;23.03;50.97;100509.75;4982702;28;45343;-72
2021/06/29 07:11:06;;;;;;;;;3.25;3.25;;;;;23.02;51.07;100510.69;4982481;28;45320;-72
2021/06/29 07:13:32;;;;;;;;;6.50;4.25;;;;;23.00;51.25;100519.66;4982480;28;45442;-71
2021/06/29 07:15:57;;;;;;;;;4.00;3.25;;;;;23.00;50.97;100522.31;4982236;28;45660;-72
2021/06/29 07:18:23;;;;;;;;;5.25;4.00;;;;;22.99;51.66;100521.44;4998535;28;45455;-71
2021/06/29 07:20:48;;;;;;;;;5.00;4.25;;;;;22.98;51.11;100522.38;5006352;28;57479;-71
2021/06/29 07:23:14;;;;;;;;;3.75;3.75;;;;;22.99;51.19;100529.44;5000117;28;45309;-71
2021/06/29 07:25:40;;;;;;;;;3.75;3.75;;;;;22.97;51.17;100523.31;4999535;28;45667;-70
2021/06/29 07:28:06;;;;;;;;;3.00;3.00;;;;;22.91;52.01;100520.94;4999626;28;45581;-71
2021/06/29 07:30:32;;;;;;;;;5.75;4.00;;;;;22.95;51.57;100529.66;4998403;28;45433;-71
2021/06/29 07:32:58;;;;;;;;;5.00;3.75;;;;;22.96;51.46;100529.59;4982579;28;45452;-70
2021/06/29 07:35:24;;;;;;;;;3.75;3.75;;;;;22.95;52.34;100532.31;5007356;28;45428;-71
2021/06/29 07:37:49;;;;;;;;;4.75;4.00;;;;;22.93;52.04;100518.19;5000117;28;45230;-70
2021/06/29 07:40:15;;;;;;;;;5.75;4.25;;;;;22.91;52.55;100530.72;4982102;28;45620;-70
2021/06/29 07:42:46;;;;;;;;;6.00;4.00;;;;;22.89;52.43;100530.78;4989761;28;45356;-72
2021/06/29 07:45:12;;;;;;;;;3.00;3.00;;;;;22.86;51.99;100524.75;5017455;28;52338;-70
2021/06/29 07:47:37;;;;;;;;;5.25;3.00;;;;;22.87;52.62;100526.47;5018288;28;45400;-72
2021/06/29 07:50:04;;;;;;;;;3.75;3.00;;;;;22.89;52.70;100529.94;5034925;28;45373;-72
2021/06/29 07:52:30;;;;;;;;;5.75;5.25;;;;;22.91;52.54;100520.94;5009245;28;45491;-72
2021/06/29 07:54:55;;;;;;;;;3.00;2.50;;;;;22.93;52.40;100527.03;4984089;28;49567;-72
2021/06/29 07:57:21;;;;;;;;;4.25;3.25;;;;;22.95;51.98;100527.84;4984835;28;45726;-72
2021/06/29 07:59:46;;;;;;;;;4.00;3.25;;;;;22.98;52.77;100530.38;5031331;28;45660;-70
2021/06/29 08:02:11;;;;;;;;;4.50;3.25;;;;;22.99;52.10;100526.78;5029339;28;45428;-71
2021/06/29 08:04:41;;;;;;;;;5.00;4.00;;;;;23.02;51.76;100525.75;5001555;28;45419;-71
2021/06/29 08:07:06;;;;;;;;;2.75;2.75;;;;;23.04;52.76;100534.56;4984900;28;45509;-71
2021/06/29 08:09:32;;;;;;;;;3.00;3.00;;;;;23.11;51.79;100536.00;5001584;28;45426;-71
2021/06/29 08:12:07;;;;;;;;;4.00;2.25;;;;;23.14;52.42;100530.53;4985180;28;45477;-71
2021/06/29 08:14:32;;;;;;;;;2.75;2.50;;;;;23.24;52.52;100530.97;4984685;28;47256;-71
2021/06/29 08:16:58;;;;;;;;;4.00;3.00;;;;;23.30;52.13;100526.22;5001201;28;45998;-71
2021/06/29 08:19:23;;;;;;;;;2.00;2.00;;;;;23.43;51.62;100531.81;4985044;28;45195;-71
2021/06/29 08:21:49;;;;;;;;;3.00;3.00;;;;;23.50;50.89;100537.75;5001588;28;45378;-71
2021/06/29 08:24:14;;;;;;;;;4.50;3.50;;;;;23.48;50.34;100532.50;4984641;28;48416;-71
2021/06/29 08:26:40;;;;;;;;;5.75;3.00;;;;;23.48;50.27;100542.28;5001182;28;51143;-71
2021/06/29 08:29:05;;;;;;;;;4.50;3.00;;;;;23.46;49.93;100542.34;4984198;28;45350;-71
2021/06/29 08:31:30;;;;;;;;;3.00;3.00;;;;;23.35;49.69;100534.84;5000947;28;54676;-71
2021/06/29 08:33:56;;;;;;;;;2.00;2.00;;;;;23.18;49.37;100533.91;5002294;28;45324;-71
2021/06/29 08:36:21;;;;;;;;;3.00;2.75;;;;;23.13;50.00;100542.13;5000963;28;48308;-72
2021/06/29 08:38:50;;;;;;;;;3.50;3.50;;;;;23.11;49.46;100536.88;5002201;28;45210;-72
2021/06/29 08:41:16;;;;;;;;;3.75;2.50;;;;;23.01;50.02;100540.88;4984942;28;45435;-71
2021/06/29 08:43:41;;;;;;;;;2.00;2.00;;;;;23.01;49.85;100543.53;4999628;28;47369;-72
2021/06/29 08:46:07;;;;;;;;;3.00;3.00;;;;;23.08;50.47;100541.47;5004261;28;46158;-72
2021/06/29 08:48:37;;;;;;;;;3.75;3.00;;;;;23.13;50.23;100529.69;5022023;28;45471;-72
2021/06/29 08:51:06;;;;;;;;;4.00;4.00;;;;;23.25;50.41;100532.69;5020685;28;45479;-72
2021/06/29 08:53:32;;;;;;;;;6.50;4.00;;;;;23.27;49.97;100520.16;5004063;28;47321;-71
2021/06/29 08:56:01;;;;;;;;;6.75;4.00;;;;;23.28;50.04;100527.22;5016620;28;45494;-74
2021/06/29 08:58:27;;;;;;;;;4.00;4.00;;;;;23.32;50.29;100527.00;5003517;28;45298;-71
2021/06/29 09:00:53;;;;;;;;;4.00;3.00;;;;;23.34;49.65;100530.47;5009648;28;45533;-71
2021/06/29 09:03:19;;;;;;;;;2.00;2.00;;;;;23.37;48.77;100535.66;5017174;28;45418;-70
2021/06/29 09:05:45;;;;;;;;;2.00;2.00;;;;;23.32;48.57;100535.00;4983995;28;45427;-71
2021/06/29 09:08:18;;;;;;;;;3.00;3.00;;;;;23.24;48.47;100530.97;4984128;28;45491;-72
2021/06/29 09:11:03;;;;;;;;;4.00;3.00;;;;;23.23;49.14;100534.56;4999143;28;45725;-72
2021/06/29 09:13:30;;;;;;;;;2.75;2.00;;;;;23.29;48.89;100535.16;5010564;28;46247;-72
2021/06/29 09:15:55;;;;;;;;;3.00;3.00;;;;;23.33;49.22;100530.53;5019913;28;45419;-71
2021/06/29 09:18:28;;;;;;;;;5.25;2.00;;;;;23.42;49.31;100540.75;5020445;28;45478;-71
2021/06/29 09:21:20;;;;;;;;;3.00;2.00;;;;;23.47;48.98;100543.22;5017950;28;45333;-74
2021/06/29 09:23:50;;;;;;;;;2.00;2.00;;;;;23.48;48.39;100537.81;5001530;28;46710;-71
2021/06/29 09:26:20;;;;;;;;;2.00;2.00;;;;;23.51;48.33;100531.47;5016472;28;45514;-70
2021/06/29 09:28:53;;;;;;;;;2.00;2.00;;;;;23.50;48.82;100537.75;5019702;28;45518;-70
2021/06/29 09:31:19;;;;;;;;;2.00;2.00;;;;;23.53;48.58;100533.13;5005134;28;45485;-71
2021/06/29 09:33:46;;;;;;;;;2.25;2.25;;;;;23.54;47.98;100534.84;5033456;28;46621;-70
2021/06/29 09:36:14;;;;;;;;;3.00;3.00;;;;;23.55;47.86;100531.28;5010919;28;45244;-71
2021/06/29 09:38:41;;;;;;;;;3.25;2.00;;;;;23.59;47.70;100532.88;4983759;28;45437;-72
2021/06/29 09:41:06;;;;;;;;;2.00;2.00;;;;;23.56;48.10;100525.00;5001664;28;45419;-71
2021/06/29 09:43:36;;;;;;;;;2.25;2.25;;;;;23.58;47.60;100535.56;5014042;28;47043;-70
2021/06/29 09:46:02;;;;;;;;;4.00;2.25;;;;;23.60;47.44;100529.25;4999784;28;45418;-70
2021/06/29 09:48:54;;;;;;;;;3.50;3.50;;;;;23.62;47.35;100531.84;5000147;28;45259;-70
2021/06/29 09:51:26;;;;;;;;;2.00;2.00;;;;;23.63;47.10;100522.91;5006878;28;45541;-70
2021/06/29 09:53:52;;;;;;;;;2.50;1.75;;;;;23.62;47.17;100523.84;5019720;28;45598;-70
2021/06/29 09:56:26;;;;;;;;;1.00;1.00;;;;;23.65;46.94;100521.06;5019550;28;45396;-70
2021/06/29 09:58:53;;;;;;;;;2.00;2.00;;;;;23.63;46.84;100523.81;5013549;28;45339;-70
2021/06/29 10:01:20;;;;;;;;;2.00;2.00;;;;;23.64;46.44;100522.88;5002705;28;45569;-70
2021/06/29 10:03:49;;;;;;;;;1.50;1.50;;;;;23.66;47.17;100514.78;4999825;28;46533;-70
2021/06/29 10:06:16;;;;;;;;;2.50;1.75;;;;;23.65;46.70;100526.38;4999111;28;45441;-69
2021/06/29 10:08:43;;;;;;;;;2.75;2.00;;;;;23.64;46.84;100525.53;4983219;28;45390;-70
2021/06/29 10:11:27;;;;;;;;;1.75;1.00;;;;;23.61;47.44;100520.31;5000842;28;45222;-70
2021/06/29 10:13:57;;;;;;;;;2.25;2.25;;;;;23.65;45.84;100523.72;4999469;28;45892;-70
2021/06/29 10:16:24;;;;;;;;;20.00;18.00;;;;;23.65;46.35;100523.72;4999695;28;45348;-69
2021/06/29 10:19:18;;;;;;;;;3.00;2.00;;;;;23.65;45.95;100527.25;5016196;28;45353;-69
2021/06/29 10:21:48;;;;;;;;;3.50;3.00;;;;;23.66;46.55;100526.31;4999176;28;45514;-70
2021/06/29 10:24:15;;;;;;;;;2.00;2.00;;;;;23.64;45.89;100520.19;4982633;28;47010;-70
2021/06/29 10:26:42;;;;;;;;;2.75;2.75;;;;;23.64;46.48;100522.88;4992015;28;45286;-68
2021/06/29 10:29:09;;;;;;;;;2.00;2.00;;;;;23.65;46.83;100523.72;4986080;28;45828;-70
2021/06/29 10:32:06;;;;;;;;;4.00;2.00;;;;;23.66;46.49;100520.97;5019357;28;45430;-69
2021/06/29 10:34:32;;;;;;;;;2.00;2.00;;;;;23.65;46.55;100515.72;5018677;28;46179;-67
2021/06/29 10:36:57;;;;;;;;;3.00;3.00;;;;;23.67;46.65;100521.84;5019004;28;45361;-68
2021/06/29 10:39:30;;;;;;;;;3.00;1.00;;;;;23.69;47.73;100515.50;5019095;28;45809;-70
2021/06/29 10:42:01;;;;;;;;;1.75;1.75;;;;;23.74;46.82;100514.41;5001824;28;45413;-70
2021/06/29 10:44:39;;;;;;;;;2.75;2.50;;;;;23.77;47.34;100516.94;5001947;28;48201;-69
2021/06/29 10:47:20;;;;;;;;;2.75;2.75;;;;;23.79;46.51;100512.38;5018789;28;45321;-70
2021/06/29 10:49:46;;;;;;;;;2.75;2.00;;;;;23.79;46.57;100509.72;5018970;28;45464;-69
2021/06/29 10:52:27;;;;;;;;;3.00;2.00;;;;;23.79;46.12;100512.38;4998456;28;46144;-70
2021/06/29 10:54:56;;;;;;;;;3.25;2.00;;;;;23.78;45.55;100510.66;5013363;28;46536;-70
2021/06/29 10:57:39;;;;;;;;;2.00;2.00;;;;;23.78;45.72;100514.19;5015393;28;45350;-70
2021/06/29 11:00:17;;;;;;;;;2.25;2.25;;;;;23.77;45.72;100504.47;5002924;28;45287;-70
2021/06/29 11:03:05;;;;;;;;;2.00;2.00;;;;;23.75;46.49;100506.34;4999037;28;45339;-70
2021/06/29 11:05:31;;;;;;;;;2.00;2.00;;;;;23.74;46.91;100507.28;5000288;28;45530;-70
2021/06/29 11:08:23;;;;;;;;;2.75;2.75;;;;;23.74;47.35;100504.63;4999640;28;45372;-70
2021/06/29 11:10:59;;;;;;;;;2.00;2.00;;;;;23.76;46.38;100517.88;4998972;28;45385;-69
2021/06/29 11:13:54;;;;;;;;;2.75;2.75;;;;;23.77;47.11;100519.59;4981832;28;45555;-68
2021/06/29 11:16:39;;;;;;;;;2.75;2.75;;;;;23.78;46.36;100513.31;4998825;28;45508;-69
2021/06/29 11:19:05;;;;;;;;;3.75;3.75;;;;;23.79;45.97;100515.91;5014737;28;45527;-68
2021/06/29 11:21:35;;;;;;;;;2.75;2.50;;;;;23.79;46.72;100515.91;5015388;28;45490;-69
2021/06/29 11:24:36;;;;;;;;;4.00;3.00;;;;;23.79;46.61;100507.91;5001353;28;45454;-70
2021/06/29 11:27:02;;;;;;;;;4.00;3.25;;;;;23.78;45.86;100508.84;5019522;28;45422;-71
2021/06/29 11:29:38;;;;;;;;;3.00;3.00;;;;;23.79;45.29;100507.03;5004895;28;45338;-70